sensor_id;sensor_type;location;lat;lon;timestamp;pressure;altitude;pressure_sealevel;temperature;humidity
56174;BME280;42058;52.308;20.924;2023-05-20T00:01:45;101767.55;;;13.51;100.00
56174;BME280;42058;52.308;20.924;2023-05-20T00:04:12;101764.55;;;13.50;100.00
56174;BME280;42058;52.308;20.924;2023-05-20T00:06:38;101762.27;;;13.50;100.00
56174;BME280;42058;52.308;20.924;2023-05-20T00:09:04;101761.23;;;13.49;100.00
56174;BME280;42058;52.308;20.924;2023-05-20T00:11:31;101761.41;;;13.49;100.00
56174;BME280;42058;52.308;20.924;2023-05-20T00:13:57;101757.71;;;13.49;100.00
56174;BME280;42058;52.308;20.924;2023-05-20T00:16:24;101758.08;;;13.48;100.00
56174;BME280;42058;52.308;20.924;2023-05-20T00:18:50;101750.15;;;13.48;100.00
56174;BME280;42058;52.308;20.924;2023-05-20T00:21:17;101746.98;;;13.47;100.00
56174;BME280;42058;52.308;20.924;2023-05-20T00:23:43;101743.83;;;13.46;100.00
56174;BME280;42058;52.308;20.924;2023-05-20T00:26:09;101746.13;;;13.45;100.00
56174;BME280;42058;52.308;20.924;2023-05-20T00:28:36;101745.27;;;13.44;100.00
56174;BME280;42058;52.308;20.924;2023-05-20T00:31:02;101749.34;;;13.44;100.00
56174;BME280;42058;52.308;20.924;2023-05-20T00:33:29;101748.98;;;13.43;100.00
56174;BME280;42058;52.308;20.924;2023-05-20T00:35:56;101748.48;;;13.42;100.00
56174;BME280;42058;52.308;20.924;2023-05-20T00:38:22;101748.34;;;13.41;100.00
56174;BME280;42058;52.308;20.924;2023-05-20T00:40:48;101745.52;;;13.40;100.00
56174;BME280;42058;52.308;20.924;2023-05-20T00:43:15;101744.14;;;13.39;100.00
56174;BME280;42058;52.308;20.924;2023-05-20T00:45:41;101742.55;;;13.38;100.00
56174;BME280;42058;52.308;20.924;2023-05-20T00:48:08;101739.05;;;13.37;100.00
56174;BME280;42058;52.308;20.924;2023-05-20T00:50:34;101736.95;;;13.36;100.00
56174;BME280;42058;52.308;20.924;2023-05-20T00:53:02;101741.73;;;13.35;100.00
56174;BME280;42058;52.308;20.924;2023-05-20T00:55:28;101742.63;;;13.34;100.00
56174;BME280;42058;52.308;20.924;2023-05-20T00:57:55;101744.95;;;13.32;100.00
56174;BME280;42058;52.308;20.924;2023-05-20T01:00:22;101749.19;;;13.32;100.00
56174;BME280;42058;52.308;20.924;2023-05-20T01:02:49;101750.97;;;13.30;100.00
56174;BME280;42058;52.308;20.924;2023-05-20T01:05:15;101745.33;;;13.28;100.00
56174;BME280;42058;52.308;20.924;2023-05-20T01:07:42;101748.36;;;13.27;100.00
56174;BME280;42058;52.308;20.924;2023-05-20T01:10:09;101751.00;;;13.26;100.00
56174;BME280;42058;52.308;20.924;2023-05-20T01:12:38;101742.94;;;13.24;100.00
56174;BME280;42058;52.308;20.924;2023-05-20T01:15:09;101746.83;;;13.23;100.00
56174;BME280;42058;52.308;20.924;2023-05-20T01:17:39;101745.97;;;13.22;100.00
56174;BME280;42058;52.308;20.924;2023-05-20T01:20:07;101745.10;;;13.22;100.00
56174;BME280;42058;52.308;20.924;2023-05-20T01:22:38;101746.88;;;13.20;100.00
56174;BME280;42058;52.308;20.924;2023-05-20T01:25:11;101748.29;;;13.19;100.00
56174;BME280;42058;52.308;20.924;2023-05-20T01:27:38;101752.52;;;13.19;100.00
56174;BME280;42058;52.308;20.924;2023-05-20T01:30:06;101753.09;;;13.17;100.00
56174;BME280;42058;52.308;20.924;2023-05-20T01:32:38;101746.07;;;13.16;100.00
56174;BME280;42058;52.308;20.924;2023-05-20T01:35:07;101748.90;;;13.16;100.00
56174;BME280;42058;52.308;20.924;2023-05-20T01:37:37;101749.27;;;13.14;100.00
56174;BME280;42058;52.308;20.924;2023-05-20T01:40:07;101740.12;;;13.13;100.00
56174;BME280;42058;52.308;20.924;2023-05-20T01:42:35;101742.79;;;13.12;100.00
56174;BME280;42058;52.308;20.924;2023-05-20T01:45:02;101739.46;;;13.10;100.00
56174;BME280;42058;52.308;20.924;2023-05-20T01:47:29;101740.02;;;13.09;100.00
56174;BME280;42058;52.308;20.924;2023-05-20T01:49:56;101738.62;;;13.08;100.00
56174;BME280;42058;52.308;20.924;2023-05-20T01:52:22;101741.46;;;13.06;100.00
56174;BME280;42058;52.308;20.924;2023-05-20T01:54:49;101738.48;;;13.04;100.00
56174;BME280;42058;52.308;20.924;2023-05-20T01:57:22;101733.60;;;13.02;100.00
56174;BME280;42058;52.308;20.924;2023-05-20T01:59:49;101728.67;;;13.02;100.00
56174;BME280;42058;52.308;20.924;2023-05-20T02:02:15;101727.11;;;13.00;100.00
56174;BME280;42058;52.308;20.924;2023-05-20T02:04:44;101725.90;;;12.99;100.00
56174;BME280;42058;52.308;20.924;2023-05-20T02:07:15;101721.70;;;12.98;100.00
56174;BME280;42058;52.308;20.924;2023-05-20T02:09:42;101724.17;;;12.97;100.00
56174;BME280;42058;52.308;20.924;2023-05-20T02:12:08;101724.56;;;12.95;100.00
56174;BME280;42058;52.308;20.924;2023-05-20T02:14:50;101720.36;;;12.93;100.00
56174;BME280;42058;52.308;20.924;2023-05-20T02:17:16;101726.88;;;12.92;100.00
56174;BME280;42058;52.308;20.924;2023-05-20T02:19:44;101726.91;;;12.91;100.00
56174;BME280;42058;52.308;20.924;2023-05-20T02:22:10;101731.69;;;12.90;100.00
56174;BME280;42058;52.308;20.924;2023-05-20T02:24:37;101731.34;;;12.88;100.00
56174;BME280;42058;52.308;20.924;2023-05-20T02:27:03;101734.17;;;12.88;100.00
56174;BME280;42058;52.308;20.924;2023-05-20T02:29:33;101729.09;;;12.86;100.00
56174;BME280;42058;52.308;20.924;2023-05-20T02:31:59;101732.64;;;12.85;100.00
56174;BME280;42058;52.308;20.924;2023-05-20T02:34:27;101731.44;;;12.83;100.00
56174;BME280;42058;52.308;20.924;2023-05-20T02:36:55;101731.98;;;12.82;100.00
56174;BME280;42058;52.308;20.924;2023-05-20T02:39:21;101733.58;;;12.81;100.00
56174;BME280;42058;52.308;20.924;2023-05-20T02:41:49;101735.70;;;12.79;100.00
56174;BME280;42058;52.308;20.924;2023-05-20T02:44:15;101740.28;;;12.79;100.00
56174;BME280;42058;52.308;20.924;2023-05-20T02:46:42;101739.25;;;12.78;100.00
56174;BME280;42058;52.308;20.924;2023-05-20T02:49:08;101740.48;;;12.77;100.00
56174;BME280;42058;52.308;20.924;2023-05-20T02:51:35;101744.55;;;12.76;100.00
56174;BME280;42058;52.308;20.924;2023-05-20T02:54:02;101747.22;;;12.75;100.00
56174;BME280;42058;52.308;20.924;2023-05-20T02:56:30;101746.17;;;12.75;100.00
56174;BME280;42058;52.308;20.924;2023-05-20T02:58:57;101744.41;;;12.74;100.00
56174;BME280;42058;52.308;20.924;2023-05-20T03:01:24;101743.20;;;12.73;100.00
56174;BME280;42058;52.308;20.924;2023-05-20T03:03:50;101744.61;;;12.73;100.00
56174;BME280;42058;52.308;20.924;2023-05-20T03:06:18;101744.43;;;12.72;100.00
56174;BME280;42058;52.308;20.924;2023-05-20T03:08:44;101742.16;;;12.72;100.00
56174;BME280;42058;52.308;20.924;2023-05-20T03:11:11;101739.69;;;12.71;100.00
56174;BME280;42058;52.308;20.924;2023-05-20T03:13:37;101737.58;;;12.71;100.00
56174;BME280;42058;52.308;20.924;2023-05-20T03:16:04;101739.70;;;12.71;100.00
56174;BME280;42058;52.308;20.924;2023-05-20T03:18:33;101736.02;;;12.70;100.00
56174;BME280;42058;52.308;20.924;2023-05-20T03:20:59;101733.37;;;12.70;100.00
56174;BME280;42058;52.308;20.924;2023-05-20T03:23:26;101741.48;;;12.71;100.00
56174;BME280;42058;52.308;20.924;2023-05-20T03:25:53;101743.05;;;12.70;100.00
56174;BME280;42058;52.308;20.924;2023-05-20T03:28:19;101740.60;;;12.69;100.00
56174;BME280;42058;52.308;20.924;2023-05-20T03:30:46;101741.48;;;12.70;100.00
56174;BME280;42058;52.308;20.924;2023-05-20T03:33:12;101749.92;;;12.70;100.00
56174;BME280;42058;52.308;20.924;2023-05-20T03:35:40;101747.47;;;12.70;100.00
56174;BME280;42058;52.308;20.924;2023-05-20T03:38:06;101746.23;;;12.71;100.00
56174;BME280;42058;52.308;20.924;2023-05-20T03:40:33;101744.64;;;12.70;100.00
56174;BME280;42058;52.308;20.924;2023-05-20T03:43:00;101744.46;;;12.70;100.00
56174;BME280;42058;52.308;20.924;2023-05-20T03:45:26;101750.27;;;12.72;100.00
56174;BME280;42058;52.308;20.924;2023-05-20T03:48:02;101747.79;;;12.72;100.00
56174;BME280;42058;52.308;20.924;2023-05-20T03:50:29;101745.85;;;12.72;100.00
56174;BME280;42058;52.308;20.924;2023-05-20T03:52:56;101743.74;;;12.72;100.00
56174;BME280;42058;52.308;20.924;2023-05-20T03:55:22;101739.69;;;12.72;100.00
56174;BME280;42058;52.308;20.924;2023-05-20T03:57:50;101735.81;;;12.72;100.00
56174;BME280;42058;52.308;20.924;2023-05-20T04:00:16;101737.03;;;12.73;100.00
56174;BME280;42058;52.308;20.924;2023-05-20T04:02:43;101741.61;;;12.73;100.00
56174;BME280;42058;52.308;20.924;2023-05-20T04:05:11;101741.96;;;12.73;100.00
56174;BME280;42058;52.308;20.924;2023-05-20T04:07:38;101741.09;;;12.73;100.00
56174;BME280;42058;52.308;20.924;2023-05-20T04:10:06;101742.31;;;12.74;100.00
56174;BME280;42058;52.308;20.924;2023-05-20T04:12:32;101742.10;;;12.75;100.00
56174;BME280;42058;52.308;20.924;2023-05-20T04:15:01;101740.67;;;12.77;100.00
56174;BME280;42058;52.308;20.924;2023-05-20T04:17:30;101744.55;;;12.77;100.00
56174;BME280;42058;52.308;20.924;2023-05-20T04:19:57;101746.45;;;12.79;100.00
56174;BME280;42058;52.308;20.924;2023-05-20T04:22:25;101749.95;;;12.81;100.00
56174;BME280;42058;52.308;20.924;2023-05-20T04:24:52;101751.15;;;12.82;100.00
56174;BME280;42058;52.308;20.924;2023-05-20T04:27:18;101758.02;;;12.84;100.00
56174;BME280;42058;52.308;20.924;2023-05-20T04:29:45;101757.80;;;12.85;100.00
56174;BME280;42058;52.308;20.924;2023-05-20T04:32:13;101756.38;;;12.87;100.00
56174;BME280;42058;52.308;20.924;2023-05-20T04:34:40;101757.91;;;12.90;100.00
56174;BME280;42058;52.308;20.924;2023-05-20T04:37:06;101755.77;;;12.92;100.00
56174;BME280;42058;52.308;20.924;2023-05-20T04:39:34;101758.36;;;12.95;100.00
56174;BME280;42058;52.308;20.924;2023-05-20T04:42:02;101752.36;;;12.98;100.00
56174;BME280;42058;52.308;20.924;2023-05-20T04:44:28;101749.66;;;13.00;100.00
56174;BME280;42058;52.308;20.924;2023-05-20T04:46:56;101747.30;;;13.04;100.00
56174;BME280;42058;52.308;20.924;2023-05-20T04:49:25;101746.39;;;13.07;100.00
56174;BME280;42058;52.308;20.924;2023-05-20T04:51:51;101744.92;;;13.10;100.00
56174;BME280;42058;52.308;20.924;2023-05-20T04:54:20;101747.34;;;13.14;100.00
56174;BME280;42058;52.308;20.924;2023-05-20T04:56:47;101740.23;;;13.16;100.00
56174;BME280;42058;52.308;20.924;2023-05-20T04:59:13;101745.11;;;13.20;100.00
56174;BME280;42058;52.308;20.924;2023-05-20T05:01:39;101741.19;;;13.23;100.00
56174;BME280;42058;52.308;20.924;2023-05-20T05:04:06;101745.70;;;13.27;100.00
56174;BME280;42058;52.308;20.924;2023-05-20T05:06:32;101749.20;;;13.32;100.00
56174;BME280;42058;52.308;20.924;2023-05-20T05:08:59;101746.64;;;13.36;100.00
56174;BME280;42058;52.308;20.924;2023-05-20T05:11:25;101752.91;;;13.41;100.00
56174;BME280;42058;52.308;20.924;2023-05-20T05:13:53;101751.77;;;13.45;100.00
56174;BME280;42058;52.308;20.924;2023-05-20T05:16:22;101749.93;;;13.50;100.00
56174;BME280;42058;52.308;20.924;2023-05-20T05:18:48;101754.23;;;13.56;100.00
56174;BME280;42058;52.308;20.924;2023-05-20T05:21:15;101751.83;;;13.62;100.00
56174;BME280;42058;52.308;20.924;2023-05-20T05:23:41;101750.30;;;13.69;100.00
56174;BME280;42058;52.308;20.924;2023-05-20T05:26:08;101748.79;;;13.75;100.00
56174;BME280;42058;52.308;20.924;2023-05-20T05:28:34;101751.48;;;13.81;100.00
56174;BME280;42058;52.308;20.924;2023-05-20T05:31:01;101748.88;;;13.89;100.00
56174;BME280;42058;52.308;20.924;2023-05-20T05:33:27;101742.55;;;13.96;100.00
56174;BME280;42058;52.308;20.924;2023-05-20T05:35:54;101743.28;;;14.04;100.00
56174;BME280;42058;52.308;20.924;2023-05-20T05:38:23;101743.66;;;14.12;100.00
56174;BME280;42058;52.308;20.924;2023-05-20T05:40:50;101746.14;;;14.20;100.00
56174;BME280;42058;52.308;20.924;2023-05-20T05:43:16;101744.91;;;14.28;100.00
56174;BME280;42058;52.308;20.924;2023-05-20T05:45:45;101751.08;;;14.37;100.00
56174;BME280;42058;52.308;20.924;2023-05-20T05:48:12;101751.23;;;14.47;100.00
56174;BME280;42058;52.308;20.924;2023-05-20T05:50:38;101752.80;;;14.56;100.00
56174;BME280;42058;52.308;20.924;2023-05-20T05:53:08;101753.81;;;14.67;100.00
56174;BME280;42058;52.308;20.924;2023-05-20T05:55:35;101755.88;;;14.77;100.00
56174;BME280;42058;52.308;20.924;2023-05-20T05:58:02;101751.81;;;14.86;100.00
56174;BME280;42058;52.308;20.924;2023-05-20T06:00:28;101753.71;;;14.94;100.00
56174;BME280;42058;52.308;20.924;2023-05-20T06:02:55;101755.45;;;15.03;100.00
56174;BME280;42058;52.308;20.924;2023-05-20T06:05:32;101752.05;;;15.12;100.00
56174;BME280;42058;52.308;20.924;2023-05-20T06:07:59;101755.17;;;15.22;100.00
56174;BME280;42058;52.308;20.924;2023-05-20T06:10:26;101757.05;;;15.32;100.00
56174;BME280;42058;52.308;20.924;2023-05-20T06:12:52;101747.94;;;15.43;100.00
56174;BME280;42058;52.308;20.924;2023-05-20T06:15:19;101747.85;;;15.53;100.00
56174;BME280;42058;52.308;20.924;2023-05-20T06:17:45;101744.02;;;15.64;100.00
56174;BME280;42058;52.308;20.924;2023-05-20T06:20:13;101746.94;;;15.75;100.00
56174;BME280;42058;52.308;20.924;2023-05-20T06:22:39;101739.83;;;15.83;100.00
56174;BME280;42058;52.308;20.924;2023-05-20T06:25:06;101736.36;;;15.93;100.00
56174;BME280;42058;52.308;20.924;2023-05-20T06:27:34;101733.98;;;16.02;100.00
56174;BME280;42058;52.308;20.924;2023-05-20T06:30:01;101733.02;;;16.11;100.00
56174;BME280;42058;52.308;20.924;2023-05-20T06:32:28;101732.80;;;16.19;100.00
56174;BME280;42058;52.308;20.924;2023-05-20T06:34:56;101731.98;;;16.28;100.00
56174;BME280;42058;52.308;20.924;2023-05-20T06:37:22;101735.96;;;16.38;100.00
56174;BME280;42058;52.308;20.924;2023-05-20T06:39:52;101732.13;;;16.47;100.00
56174;BME280;42058;52.308;20.924;2023-05-20T06:42:20;101728.13;;;16.57;100.00
56174;BME280;42058;52.308;20.924;2023-05-20T06:44:56;101726.01;;;16.68;100.00
56174;BME280;42058;52.308;20.924;2023-05-20T06:47:52;101719.86;;;16.78;100.00
56174;BME280;42058;52.308;20.924;2023-05-20T06:50:19;101720.34;;;16.86;100.00
56174;BME280;42058;52.308;20.924;2023-05-20T06:52:45;101718.98;;;16.95;100.00
56174;BME280;42058;52.308;20.924;2023-05-20T06:55:12;101721.74;;;17.03;100.00
56174;BME280;42058;52.308;20.924;2023-05-20T06:57:39;101721.08;;;17.12;100.00
56174;BME280;42058;52.308;20.924;2023-05-20T07:00:07;101719.85;;;17.22;100.00
56174;BME280;42058;52.308;20.924;2023-05-20T07:02:41;101719.64;;;17.34;100.00
56174;BME280;42058;52.308;20.924;2023-05-20T07:05:10;101717.30;;;17.45;100.00
56174;BME280;42058;52.308;20.924;2023-05-20T07:07:37;101714.27;;;17.57;100.00
56174;BME280;42058;52.308;20.924;2023-05-20T07:10:04;101714.70;;;17.69;100.00
56174;BME280;42058;52.308;20.924;2023-05-20T07:12:35;101713.89;;;17.81;100.00
56174;BME280;42058;52.308;20.924;2023-05-20T07:15:03;101710.82;;;17.94;100.00
56174;BME280;42058;52.308;20.924;2023-05-20T07:17:30;101709.27;;;18.07;100.00
56174;BME280;42058;52.308;20.924;2023-05-20T07:19:58;101709.45;;;18.21;100.00
56174;BME280;42058;52.308;20.924;2023-05-20T07:22:25;101706.52;;;18.37;100.00
56174;BME280;42058;52.308;20.924;2023-05-20T07:24:56;101704.96;;;18.54;100.00
56174;BME280;42058;52.308;20.924;2023-05-20T07:27:23;101707.67;;;18.71;100.00
56174;BME280;42058;52.308;20.924;2023-05-20T07:29:49;101707.70;;;18.89;100.00
56174;BME280;42058;52.308;20.924;2023-05-20T07:32:15;101705.21;;;19.06;100.00
56174;BME280;42058;52.308;20.924;2023-05-20T07:34:42;101701.05;;;19.25;100.00
56174;BME280;42058;52.308;20.924;2023-05-20T07:37:08;101699.19;;;19.43;100.00
56174;BME280;42058;52.308;20.924;2023-05-20T07:39:38;101695.27;;;19.64;100.00
56174;BME280;42058;52.308;20.924;2023-05-20T07:42:06;101693.03;;;19.83;99.52
56174;BME280;42058;52.308;20.924;2023-05-20T07:44:35;101693.45;;;20.01;99.41
56174;BME280;42058;52.308;20.924;2023-05-20T07:47:01;101692.08;;;20.19;98.89
56174;BME280;42058;52.308;20.924;2023-05-20T07:49:28;101685.91;;;20.36;98.32
56174;BME280;42058;52.308;20.924;2023-05-20T07:51:55;101683.58;;;20.56;97.73
56174;BME280;42058;52.308;20.924;2023-05-20T07:54:25;101680.63;;;20.73;96.80
56174;BME280;42058;52.308;20.924;2023-05-20T07:56:52;101680.75;;;20.88;94.59
56174;BME280;42058;52.308;20.924;2023-05-20T07:59:19;101678.27;;;21.06;95.13
56174;BME280;42058;52.308;20.924;2023-05-20T08:01:47;101676.39;;;21.25;94.71
56174;BME280;42058;52.308;20.924;2023-05-20T08:04:15;101678.70;;;21.43;94.14
56174;BME280;42058;52.308;20.924;2023-05-20T08:06:41;101676.02;;;21.60;92.82
56174;BME280;42058;52.308;20.924;2023-05-20T08:09:15;101671.90;;;21.77;92.09
56174;BME280;42058;52.308;20.924;2023-05-20T08:11:46;101674.04;;;21.94;90.06
56174;BME280;42058;52.308;20.924;2023-05-20T08:14:13;101670.23;;;22.08;89.99
56174;BME280;42058;52.308;20.924;2023-05-20T08:16:41;101672.82;;;22.26;89.13
56174;BME280;42058;52.308;20.924;2023-05-20T08:19:08;101672.84;;;22.42;87.02
56174;BME280;42058;52.308;20.924;2023-05-20T08:21:37;101668.86;;;22.59;86.42
56174;BME280;42058;52.308;20.924;2023-05-20T08:24:04;101670.26;;;22.74;85.27
56174;BME280;42058;52.308;20.924;2023-05-20T08:26:40;101669.58;;;22.90;84.08
56174;BME280;42058;52.308;20.924;2023-05-20T08:29:11;101666.35;;;23.05;81.46
56174;BME280;42058;52.308;20.924;2023-05-20T08:31:38;101669.57;;;23.17;80.10
56174;BME280;42058;52.308;20.924;2023-05-20T08:34:05;101668.34;;;23.29;79.38
56174;BME280;42058;52.308;20.924;2023-05-20T08:39:39;101661.73;;;23.58;78.99
56174;BME280;42058;52.308;20.924;2023-05-20T08:42:07;101668.34;;;23.76;78.56
56174;BME280;42058;52.308;20.924;2023-05-20T08:44:53;101668.55;;;23.93;78.55
56174;BME280;42058;52.308;20.924;2023-05-20T08:47:43;101662.34;;;24.12;77.84
56174;BME280;42058;52.308;20.924;2023-05-20T08:50:23;101660.66;;;24.27;76.05
56174;BME280;42058;52.308;20.924;2023-05-20T08:52:54;101651.36;;;24.38;74.68
56174;BME280;42058;52.308;20.924;2023-05-20T08:55:25;101652.59;;;24.52;72.84
56174;BME280;42058;52.308;20.924;2023-05-20T08:57:53;101648.15;;;24.60;71.90
56174;BME280;42058;52.308;20.924;2023-05-20T09:00:21;101642.09;;;24.64;71.45
56174;BME280;42058;52.308;20.924;2023-05-20T09:02:54;101643.61;;;24.74;70.87
56174;BME280;42058;52.308;20.924;2023-05-20T09:05:22;101640.48;;;24.80;70.92
56174;BME280;42058;52.308;20.924;2023-05-20T09:10:54;101633.56;;;24.92;68.59
56174;BME280;42058;52.308;20.924;2023-05-20T09:13:22;101632.08;;;24.93;67.04
56174;BME280;42058;52.308;20.924;2023-05-20T09:15:49;101633.49;;;24.99;67.75
56174;BME280;42058;52.308;20.924;2023-05-20T09:18:16;101632.73;;;25.05;69.22
56174;BME280;42058;52.308;20.924;2023-05-20T09:20:45;101630.32;;;25.08;67.71
56174;BME280;42058;52.308;20.924;2023-05-20T09:23:12;101631.34;;;25.12;66.93
56174;BME280;42058;52.308;20.924;2023-05-20T09:25:38;101627.66;;;25.18;66.22
56174;BME280;42058;52.308;20.924;2023-05-20T09:28:08;101620.55;;;25.25;65.93
56174;BME280;42058;52.308;20.924;2023-05-20T09:30:35;101618.45;;;25.35;65.48
56174;BME280;42058;52.308;20.924;2023-05-20T09:33:03;101622.66;;;25.42;63.79
56174;BME280;42058;52.308;20.924;2023-05-20T09:35:30;101627.36;;;25.44;62.19
56174;BME280;42058;52.308;20.924;2023-05-20T09:38:00;101625.38;;;25.44;61.15
56174;BME280;42058;52.308;20.924;2023-05-20T09:40:27;101626.13;;;25.48;61.37
56174;BME280;42058;52.308;20.924;2023-05-20T09:43:02;101623.88;;;25.50;60.61
56174;BME280;42058;52.308;20.924;2023-05-20T09:45:30;101625.08;;;25.50;60.51
56174;BME280;42058;52.308;20.924;2023-05-20T09:47:56;101624.36;;;25.48;59.76
56174;BME280;42058;52.308;20.924;2023-05-20T09:50:23;101624.39;;;25.45;59.39
56174;BME280;42058;52.308;20.924;2023-05-20T09:52:51;101621.45;;;25.41;58.54
56174;BME280;42058;52.308;20.924;2023-05-20T09:55:21;101618.02;;;25.36;58.52
56174;BME280;42058;52.308;20.924;2023-05-20T09:57:48;101617.73;;;25.32;58.59
56174;BME280;42058;52.308;20.924;2023-05-20T10:00:17;101617.73;;;25.30;58.47
56174;BME280;42058;52.308;20.924;2023-05-20T10:02:49;101610.63;;;25.26;57.78
56174;BME280;42058;52.308;20.924;2023-05-20T10:05:19;101609.48;;;25.27;58.55
56174;BME280;42058;52.308;20.924;2023-05-20T10:11:05;101609.25;;;25.36;58.71
56174;BME280;42058;52.308;20.924;2023-05-20T10:13:48;101606.63;;;25.42;58.47
56174;BME280;42058;52.308;20.924;2023-05-20T10:16:28;101605.92;;;25.47;57.93
56174;BME280;42058;52.308;20.924;2023-05-20T10:22:10;101608.35;;;25.56;57.49
56174;BME280;42058;52.308;20.924;2023-05-20T10:24:40;101603.91;;;25.56;56.51
56174;BME280;42058;52.308;20.924;2023-05-20T10:27:12;101601.04;;;25.55;56.69
56174;BME280;42058;52.308;20.924;2023-05-20T10:30:20;101595.10;;;25.56;56.67
56174;BME280;42058;52.308;20.924;2023-05-20T10:32:57;101593.75;;;25.59;56.94
56174;BME280;42058;52.308;20.924;2023-05-20T10:35:28;101593.16;;;25.65;57.41
56174;BME280;42058;52.308;20.924;2023-05-20T10:38:06;101587.20;;;25.70;57.02
56174;BME280;42058;52.308;20.924;2023-05-20T10:40:33;101582.89;;;25.73;56.25
56174;BME280;42058;52.308;20.924;2023-05-20T10:43:10;101582.98;;;25.74;56.20
56174;BME280;42058;52.308;20.924;2023-05-20T10:45:50;101580.50;;;25.76;56.04
56174;BME280;42058;52.308;20.924;2023-05-20T10:48:24;101576.16;;;25.76;55.80
56174;BME280;42058;52.308;20.924;2023-05-20T10:50:56;101569.66;;;25.77;55.97
56174;BME280;42058;52.308;20.924;2023-05-20T10:53:25;101568.81;;;25.79;55.79
56174;BME280;42058;52.308;20.924;2023-05-20T10:56:00;101562.71;;;25.81;55.37
56174;BME280;42058;52.308;20.924;2023-05-20T10:58:26;101558.59;;;25.83;55.13
56174;BME280;42058;52.308;20.924;2023-05-20T11:00:54;101561.66;;;25.85;55.34
56174;BME280;42058;52.308;20.924;2023-05-20T11:03:21;101557.13;;;25.86;55.11
56174;BME280;42058;52.308;20.924;2023-05-20T11:05:49;101556.17;;;25.86;55.22
56174;BME280;42058;52.308;20.924;2023-05-20T11:08:16;101553.64;;;25.87;55.06
56174;BME280;42058;52.308;20.924;2023-05-20T11:10:57;101551.03;;;25.91;55.16
56174;BME280;42058;52.308;20.924;2023-05-20T11:13:24;101544.45;;;25.95;55.22
56174;BME280;42058;52.308;20.924;2023-05-20T11:15:52;101540.25;;;26.01;54.96
56174;BME280;42058;52.308;20.924;2023-05-20T11:18:18;101534.63;;;26.06;54.80
56174;BME280;42058;52.308;20.924;2023-05-20T11:20:45;101534.19;;;26.12;54.57
56174;BME280;42058;52.308;20.924;2023-05-20T11:23:13;101533.65;;;26.15;54.28
56174;BME280;42058;52.308;20.924;2023-05-20T11:25:40;101533.27;;;26.17;53.91
56174;BME280;42058;52.308;20.924;2023-05-20T11:28:17;101529.50;;;26.17;53.73
56174;BME280;42058;52.308;20.924;2023-05-20T11:30:52;101527.25;;;26.18;53.59
56174;BME280;42058;52.308;20.924;2023-05-20T11:33:19;101526.06;;;26.22;53.93
56174;BME280;42058;52.308;20.924;2023-05-20T11:35:50;101522.92;;;26.25;53.94
56174;BME280;42058;52.308;20.924;2023-05-20T11:38:17;101522.37;;;26.28;53.92
56174;BME280;42058;52.308;20.924;2023-05-20T11:40:45;101523.84;;;26.31;53.99
56174;BME280;42058;52.308;20.924;2023-05-20T11:43:18;101525.34;;;26.36;54.21
56174;BME280;42058;52.308;20.924;2023-05-20T11:45:47;101527.74;;;26.45;54.06
56174;BME280;42058;52.308;20.924;2023-05-20T11:48:13;101533.35;;;26.52;53.71
56174;BME280;42058;52.308;20.924;2023-05-20T11:50:43;101533.70;;;26.55;52.76
56174;BME280;42058;52.308;20.924;2023-05-20T11:53:14;101534.70;;;26.55;52.48
56174;BME280;42058;52.308;20.924;2023-05-20T11:55:58;101536.30;;;26.53;52.30
56174;BME280;42058;52.308;20.924;2023-05-20T11:58:28;101531.50;;;26.53;52.27
56174;BME280;42058;52.308;20.924;2023-05-20T12:00:55;101533.58;;;26.56;52.64
56174;BME280;42058;52.308;20.924;2023-05-20T12:03:39;101528.81;;;26.67;53.26
56174;BME280;42058;52.308;20.924;2023-05-20T12:06:06;101525.48;;;26.78;53.40
56174;BME280;42058;52.308;20.924;2023-05-20T12:08:32;101519.45;;;26.88;52.34
56174;BME280;42058;52.308;20.924;2023-05-20T12:10:59;101520.86;;;26.95;51.95
56174;BME280;42058;52.308;20.924;2023-05-20T12:13:25;101516.82;;;27.03;51.71
56174;BME280;42058;52.308;20.924;2023-05-20T12:15:52;101521.88;;;27.08;51.53
56174;BME280;42058;52.308;20.924;2023-05-20T12:18:18;101521.79;;;27.11;51.50
56174;BME280;42058;52.308;20.924;2023-05-20T12:20:45;101522.02;;;27.13;51.08
56174;BME280;42058;52.308;20.924;2023-05-20T12:23:12;101523.16;;;27.12;50.89
56174;BME280;42058;52.308;20.924;2023-05-20T12:25:39;101522.77;;;27.12;50.78
56174;BME280;42058;52.308;20.924;2023-05-20T12:28:05;101524.14;;;27.15;50.59
56174;BME280;42058;52.308;20.924;2023-05-20T12:30:32;101522.57;;;27.17;50.29
56174;BME280;42058;52.308;20.924;2023-05-20T12:32:59;101522.04;;;27.19;50.10
56174;BME280;42058;52.308;20.924;2023-05-20T12:35:39;101520.76;;;27.17;49.79
56174;BME280;42058;52.308;20.924;2023-05-20T12:38:05;101524.64;;;27.14;49.78
56174;BME280;42058;52.308;20.924;2023-05-20T12:40:36;101522.66;;;27.09;49.63
56174;BME280;42058;52.308;20.924;2023-05-20T12:43:04;101515.64;;;27.04;49.38
56174;BME280;42058;52.308;20.924;2023-05-20T12:45:31;101517.90;;;27.06;49.93
56174;BME280;42058;52.308;20.924;2023-05-20T12:47:58;101516.08;;;27.08;50.56
56174;BME280;42058;52.308;20.924;2023-05-20T12:50:26;101513.98;;;27.07;49.91
56174;BME280;42058;52.308;20.924;2023-05-20T12:52:52;101513.30;;;27.07;50.34